createdAt,value
2023-11-15T00:00:41.689Z,99576.34
2023-11-15T00:03:09.737Z,99574.41
2023-11-15T00:05:39.206Z,99579.28
2023-11-15T00:08:07.219Z,99575.06
2023-11-15T00:10:35.202Z,99580.63
2023-11-15T00:13:03.764Z,99575.84
2023-11-15T00:15:32.178Z,99576.28
2023-11-15T00:18:05.397Z,99576.19
2023-11-15T00:20:34.784Z,99579.53
2023-11-15T00:23:04.886Z,99582.63
2023-11-15T00:25:33.962Z,99588.06
2023-11-15T00:28:02.534Z,99581.84
2023-11-15T00:30:30.475Z,99588.13
2023-11-15T00:32:58.600Z,99589.66
2023-11-15T00:35:27.240Z,99591.44
2023-11-15T00:37:55.649Z,99584.28
2023-11-15T00:40:25.150Z,99591.19
2023-11-15T00:42:55.205Z,99596.56
2023-11-15T00:45:25.661Z,99595.44
2023-11-15T00:47:53.723Z,99601.63
2023-11-15T00:50:21.701Z,99601.28
2023-11-15T00:52:49.636Z,99608.88
2023-11-15T00:55:18.169Z,99610.94
2023-11-15T00:57:47.967Z,99623.75
2023-11-15T01:00:25.029Z,99619.75
2023-11-15T01:02:56.516Z,99621.56
2023-11-15T01:05:25.477Z,99629.00
2023-11-15T01:07:53.614Z,99625.22
2023-11-15T01:10:21.692Z,99634.16
2023-11-15T01:12:52.330Z,99635.91
2023-11-15T01:15:23.118Z,99637.56
2023-11-15T01:17:52.401Z,99635.47
2023-11-15T01:20:20.570Z,99636.66
2023-11-15T01:22:48.732Z,99644.63
2023-11-15T01:25:16.803Z,99635.75
2023-11-15T01:27:44.769Z,99633.41
2023-11-15T01:30:15.433Z,99646.66
2023-11-15T01:32:43.523Z,99650.38
2023-11-15T01:35:12.345Z,99645.38
2023-11-15T01:37:40.295Z,99645.91
2023-11-15T01:40:11.221Z,99647.94
2023-11-15T01:42:40.410Z,99649.63
2023-11-15T01:45:10.759Z,99658.31
2023-11-15T01:47:41.448Z,99659.16
2023-11-15T01:50:14.196Z,99655.81
2023-11-15T01:52:44.876Z,99660.94
2023-11-15T01:55:17.453Z,99665.69
2023-11-15T01:57:46.125Z,99670.06
2023-11-15T02:00:16.468Z,99670.06
2023-11-15T02:02:46.157Z,99672.34
2023-11-15T02:05:14.305Z,99674.22
2023-11-15T02:07:44.810Z,99673.19
2023-11-15T02:10:13.837Z,99670.38
2023-11-15T02:12:41.944Z,99667.44
2023-11-15T02:15:11.251Z,99676.69
2023-11-15T02:17:40.116Z,99679.84
2023-11-15T02:20:11.580Z,99679.50
2023-11-15T02:22:48.421Z,99686.84
2023-11-15T02:25:20.517Z,99687.59
2023-11-15T02:27:48.483Z,99696.75
2023-11-15T02:30:16.725Z,99698.81
2023-11-15T02:32:44.995Z,99699.00
2023-11-15T02:35:13.203Z,99707.06
2023-11-15T02:37:41.228Z,99711.59
2023-11-15T02:40:11.854Z,99708.91
2023-11-15T02:42:41.691Z,99715.34
2023-11-15T02:45:11.220Z,99720.72
2023-11-15T02:47:39.564Z,99725.72
2023-11-15T02:50:09.431Z,99723.41
2023-11-15T02:52:38.016Z,99721.56
2023-11-15T02:55:06.979Z,99734.63
2023-11-15T02:57:34.985Z,99726.47
2023-11-15T03:00:07.182Z,99739.91
2023-11-15T03:02:35.421Z,99737.69
2023-11-15T03:05:04.137Z,99751.31
2023-11-15T03:07:32.334Z,99757.44
2023-11-15T03:10:00.947Z,99765.31
2023-11-15T03:12:28.960Z,99771.28
2023-11-15T03:14:57.199Z,99770.44
2023-11-15T03:17:26.887Z,99774.69
2023-11-15T03:19:56.041Z,99786.88
2023-11-15T03:22:24.205Z,99799.94
2023-11-15T03:24:52.187Z,99795.56
2023-11-15T03:27:20.681Z,99797.88
2023-11-15T03:29:48.925Z,99808.25
2023-11-15T03:32:17.122Z,99808.63
2023-11-15T03:34:47.396Z,99807.81
2023-11-15T03:37:15.782Z,99807.88
2023-11-15T03:39:43.779Z,99812.50
2023-11-15T03:42:13.456Z,99813.44
2023-11-15T03:44:41.692Z,99820.38
2023-11-15T03:47:09.730Z,99827.28
2023-11-15T03:49:37.887Z,99828.31
2023-11-15T03:52:08.942Z,99826.72
2023-11-15T03:54:37.454Z,99844.84
2023-11-15T03:57:08.948Z,99840.69
2023-11-15T03:59:37.093Z,99846.78
2023-11-15T04:02:07.627Z,99851.66
2023-11-15T04:04:36.041Z,99857.75
2023-11-15T04:07:05.248Z,99852.94
2023-11-15T04:09:35.399Z,99862.47
2023-11-15T04:12:03.666Z,99865.16
2023-11-15T04:14:31.950Z,99876.97
2023-11-15T04:16:59.939Z,99890.09
2023-11-15T04:19:28.247Z,99889.66
2023-11-15T04:22:08.159Z,99882.13
2023-11-15T04:24:41.774Z,99893.19
2023-11-15T04:27:09.885Z,99908.19
2023-11-15T04:29:39.358Z,99906.38
2023-11-15T04:32:08.122Z,99908.75
2023-11-15T04:34:36.212Z,99924.84
2023-11-15T04:37:05.033Z,99926.69
2023-11-15T04:39:33.005Z,99921.00
2023-11-15T04:42:03.064Z,99936.47
2023-11-15T04:44:31.970Z,99937.28
2023-11-15T04:47:00.120Z,99947.03
2023-11-15T04:49:28.182Z,99946.72
2023-11-15T04:51:56.192Z,99955.44
2023-11-15T04:54:24.242Z,99956.13
2023-11-15T04:56:52.944Z,99962.66
2023-11-15T04:59:22.373Z,99961.16
2023-11-15T05:01:50.364Z,99968.56
2023-11-15T05:04:18.501Z,99972.72
2023-11-15T05:06:47.866Z,99982.97
2023-11-15T05:09:15.954Z,99991.16
2023-11-15T05:11:43.918Z,99988.66
2023-11-15T05:14:11.886Z,99987.47
2023-11-15T05:16:41.441Z,99997.69
2023-11-15T05:19:09.465Z,100009.28
2023-11-15T05:21:38.354Z,100013.09
2023-11-15T05:24:08.293Z,100010.44
2023-11-15T05:26:36.312Z,100006.09
2023-11-15T05:29:04.376Z,100018.63
2023-11-15T05:31:32.404Z,100022.84
2023-11-15T05:34:04.135Z,100029.53
2023-11-15T05:36:32.178Z,100030.72
2023-11-15T05:39:00.204Z,100038.78
2023-11-15T05:41:29.704Z,100033.88
2023-11-15T05:43:57.921Z,100042.59
2023-11-15T05:46:26.666Z,100049.31
2023-11-15T05:48:54.848Z,100053.84
2023-11-15T05:51:24.331Z,100062.72
2023-11-15T05:53:52.320Z,100069.41
2023-11-15T05:56:20.669Z,100067.56
2023-11-15T05:58:48.574Z,100076.78
2023-11-15T06:01:16.518Z,100075.78
2023-11-15T06:03:44.660Z,100085.81
2023-11-15T06:06:12.794Z,100097.22
2023-11-15T06:08:43.295Z,100102.06
2023-11-15T06:11:11.692Z,100105.41
2023-11-15T06:13:40.074Z,100113.09
2023-11-15T06:16:09.483Z,100120.97
2023-11-15T06:18:37.612Z,100134.03
2023-11-15T06:21:06.888Z,100131.00
2023-11-15T06:23:36.200Z,100134.38
2023-11-15T06:26:06.639Z,100144.94
2023-11-15T06:28:36.716Z,100151.97
2023-11-15T06:31:05.762Z,100153.78
2023-11-15T06:33:33.889Z,100150.56
2023-11-15T06:36:03.339Z,100161.28
2023-11-15T06:38:31.711Z,100166.19
2023-11-15T06:41:02.399Z,100174.03
2023-11-15T06:43:32.747Z,100181.91
2023-11-15T06:46:00.712Z,100180.03
2023-11-15T06:48:28.901Z,100193.25
2023-11-15T06:50:56.958Z,100202.34
2023-11-15T06:53:24.874Z,100196.63
2023-11-15T06:55:53.942Z,100212.38
2023-11-15T06:58:22.499Z,100210.38
2023-11-15T07:00:52.069Z,100218.41
2023-11-15T07:03:20.010Z,100218.59
2023-11-15T07:05:49.991Z,100225.50
2023-11-15T07:08:18.443Z,100227.53
2023-11-15T07:10:47.386Z,100230.50
2023-11-15T07:13:15.342Z,100240.53
2023-11-15T07:15:45.401Z,100241.59
2023-11-15T07:18:15.039Z,100251.66
2023-11-15T07:20:43.619Z,100254.50
2023-11-15T07:23:12.948Z,100260.16
2023-11-15T07:25:41.043Z,100264.69
2023-11-15T07:28:11.057Z,100270.41
2023-11-15T07:30:39.051Z,100273.00
2023-11-15T07:33:07.206Z,100276.19
2023-11-15T07:35:37.652Z,100278.91
2023-11-15T07:38:09.114Z,100282.88
2023-11-15T07:40:38.920Z,100286.13
2023-11-15T07:43:07.862Z,100292.66
2023-11-15T07:45:36.746Z,100290.59
2023-11-15T07:48:06.321Z,100297.53
2023-11-15T07:50:36.592Z,100299.53
2023-11-15T07:53:04.980Z,100313.47
2023-11-15T07:55:36.570Z,100313.69
2023-11-15T07:58:05.586Z,100316.22
2023-11-15T08:00:36.697Z,100329.63
2023-11-15T08:03:05.905Z,100324.59
2023-11-15T08:05:34.035Z,100338.78
2023-11-15T08:08:04.540Z,100348.91
2023-11-15T08:10:33.722Z,100358.59
2023-11-15T08:13:01.704Z,100361.97
2023-11-15T08:15:29.646Z,100361.28
2023-11-15T08:17:57.820Z,100368.50
2023-11-15T08:20:26.073Z,100363.78
2023-11-15T08:22:54.197Z,100383.78
2023-11-15T08:25:23.833Z,100378.94
2023-11-15T08:27:53.249Z,100378.53
2023-11-15T08:30:22.428Z,100388.47
2023-11-15T08:32:50.598Z,100398.59
2023-11-15T08:35:18.958Z,100389.88
2023-11-15T08:37:47.017Z,100408.09
2023-11-15T08:40:26.120Z,100407.38
2023-11-15T08:42:59.583Z,100414.28
2023-11-15T08:45:28.161Z,100421.88
2023-11-15T08:47:58.618Z,100426.56
2023-11-15T08:50:28.244Z,100427.72
2023-11-15T08:52:57.558Z,100437.25
2023-11-15T08:55:27.423Z,100439.25
2023-11-15T08:57:58.043Z,100453.06
2023-11-15T09:00:26.045Z,100448.88
2023-11-15T09:02:54.079Z,100454.41
2023-11-15T09:05:24.344Z,100455.38
2023-11-15T09:07:52.563Z,100459.53
2023-11-15T09:10:23.881Z,100467.66
2023-11-15T09:12:53.372Z,100465.50
2023-11-15T09:15:25.482Z,100469.84
2023-11-15T09:17:53.571Z,100479.31
2023-11-15T09:20:27.094Z,100473.94
2023-11-15T09:22:55.859Z,100485.16
2023-11-15T09:25:25.340Z,100485.78
2023-11-15T09:27:55.583Z,100493.88
2023-11-15T09:30:26.378Z,100491.84
2023-11-15T09:32:55.868Z,100497.69
2023-11-15T09:35:29.055Z,100502.03
2023-11-15T09:37:59.215Z,100501.31
2023-11-15T09:40:29.327Z,100500.00
2023-11-15T09:43:01.144Z,100513.03
2023-11-15T09:45:33.835Z,100512.03
2023-11-15T09:48:05.510Z,100528.38
2023-11-15T09:50:35.855Z,100520.09
2023-11-15T09:53:06.522Z,100512.03
2023-11-15T09:55:36.005Z,100522.88
2023-11-15T09:58:04.655Z,100530.22
2023-11-15T10:00:34.161Z,100530.66
2023-11-15T10:03:02.864Z,100533.53
2023-11-15T10:05:33.331Z,100533.63
2023-11-15T10:08:13.851Z,100537.47
2023-11-15T10:10:44.663Z,100539.84
2023-11-15T10:13:15.472Z,100545.91
2023-11-15T10:15:46.811Z,100538.63
2023-11-15T10:18:19.369Z,100542.13
2023-11-15T10:20:48.693Z,100547.22
2023-11-15T10:23:32.222Z,100549.53
2023-11-15T10:26:02.507Z,100546.25
2023-11-15T10:28:34.163Z,100552.28
2023-11-15T10:31:06.607Z,100555.91
2023-11-15T10:33:36.339Z,100561.59
2023-11-15T10:36:23.772Z,100563.97
2023-11-15T10:38:56.578Z,100564.94
2023-11-15T10:41:27.086Z,100573.22
2023-11-15T10:43:56.307Z,100573.31
2023-11-15T10:46:30.319Z,100587.25
2023-11-15T10:49:00.504Z,100583.66
2023-11-15T10:51:41.910Z,100582.47
2023-11-15T10:54:18.498Z,100587.63
2023-11-15T10:56:50.841Z,100591.22
2023-11-15T10:59:21.184Z,100596.88
2023-11-15T11:01:55.629Z,100600.41
2023-11-15T11:04:24.865Z,100605.56
2023-11-15T11:07:09.004Z,100610.13
2023-11-15T11:09:50.123Z,100612.38
2023-11-15T11:12:21.710Z,100614.34
2023-11-15T11:15:13.320Z,100618.88
2023-11-15T11:17:46.744Z,100616.25
2023-11-15T11:20:27.031Z,100626.59
2023-11-15T11:23:09.190Z,100624.00
2023-11-15T11:25:40.161Z,100625.38
2023-11-15T11:28:13.097Z,100632.13
2023-11-15T11:30:41.749Z,100629.00
2023-11-15T11:33:17.586Z,100633.59
2023-11-15T11:35:47.271Z,100639.97
2023-11-15T11:38:43.705Z,100630.97
2023-11-15T11:41:13.934Z,100641.16
2023-11-15T11:43:43.220Z,100640.97
2023-11-15T11:46:17.245Z,100633.97
2023-11-15T11:48:47.000Z,100641.09
2023-11-15T11:51:16.823Z,100641.44
2023-11-15T11:53:47.951Z,100652.84
2023-11-15T11:56:16.098Z,100648.97
2023-11-15T11:58:45.029Z,100650.28
2023-11-15T12:01:14.455Z,100645.41
2023-11-15T12:03:50.126Z,100650.75
2023-11-15T12:06:19.731Z,100650.28
2023-11-15T12:08:53.792Z,100658.09
2023-11-15T12:11:24.669Z,100661.47
2023-11-15T12:13:54.701Z,100660.63
2023-11-15T12:16:26.243Z,100656.91
2023-11-15T12:19:03.032Z,100666.72
2023-11-15T12:21:34.201Z,100666.53
2023-11-15T12:24:06.015Z,100661.41
2023-11-15T12:26:44.286Z,100668.56
2023-11-15T12:29:21.537Z,100667.25
2023-11-15T12:31:52.495Z,100666.59
2023-11-15T12:34:23.341Z,100672.22
2023-11-15T12:36:52.937Z,100673.31
2023-11-15T12:39:23.240Z,100673.34
2023-11-15T12:41:53.627Z,100678.69
2023-11-15T12:44:22.619Z,100668.16
2023-11-15T12:46:54.808Z,100675.41
2023-11-15T12:49:28.534Z,100681.78
2023-11-15T12:51:57.706Z,100679.50
2023-11-15T12:54:25.643Z,100689.25
2023-11-15T12:57:12.939Z,100688.53
2023-11-15T12:59:43.194Z,100690.91
2023-11-15T13:02:13.510Z,100696.63
2023-11-15T13:04:52.709Z,100704.28
2023-11-15T13:07:20.998Z,100711.63
2023-11-15T13:09:49.403Z,100700.44
2023-11-15T13:12:25.719Z,100709.28
2023-11-15T13:14:55.690Z,100706.97
2023-11-15T13:17:24.504Z,100702.53
2023-11-15T13:19:53.846Z,100708.13
2023-11-15T13:22:21.856Z,100709.59
2023-11-15T13:24:51.056Z,100709.16
2023-11-15T13:27:21.523Z,100719.59
2023-11-15T13:29:51.644Z,100717.91
2023-11-15T13:32:20.429Z,100723.50
2023-11-15T13:34:51.657Z,100731.25
2023-11-15T13:37:21.271Z,100731.34
2023-11-15T13:39:48.492Z,100740.72
2023-11-15T13:42:16.605Z,100739.38
2023-11-15T13:44:44.821Z,100734.09
2023-11-15T13:47:13.679Z,100741.56
2023-11-15T13:49:47.378Z,100741.19
2023-11-15T13:52:16.911Z,100735.91
2023-11-15T13:54:47.504Z,100745.50
2023-11-15T13:57:16.410Z,100743.25
2023-11-15T13:59:44.534Z,100749.97
2023-11-15T14:02:14.609Z,100747.66
2023-11-15T14:04:42.725Z,100752.69
2023-11-15T14:07:11.371Z,100757.13
2023-11-15T14:09:39.684Z,100759.75
2023-11-15T14:12:10.056Z,100757.78
2023-11-15T14:14:39.889Z,100760.19
2023-11-15T14:17:08.966Z,100769.97
2023-11-15T14:19:38.171Z,100776.16
2023-11-15T14:22:06.805Z,100780.19
2023-11-15T14:24:36.929Z,100780.78
2023-11-15T14:27:05.699Z,100784.47
2023-11-15T14:29:35.368Z,100783.69
2023-11-15T14:32:03.449Z,100784.66
2023-11-15T14:34:33.487Z,100783.88
2023-11-15T14:37:04.335Z,100783.88
2023-11-15T14:39:33.059Z,100791.19
2023-11-15T14:42:01.307Z,100787.97
2023-11-15T14:44:29.817Z,100790.00
2023-11-15T14:47:00.073Z,100790.84
2023-11-15T14:49:28.185Z,100792.50
2023-11-15T14:52:08.546Z,100795.88
2023-11-15T14:54:41.644Z,100796.25
2023-11-15T14:57:10.353Z,100800.06
2023-11-15T14:59:41.668Z,100795.88
2023-11-15T15:02:11.620Z,100791.56
2023-11-15T15:04:43.497Z,100801.94
2023-11-15T15:07:12.900Z,100797.50
2023-11-15T15:09:41.156Z,100803.94
2023-11-15T15:12:10.297Z,100798.56
2023-11-15T15:14:39.332Z,100804.53
2023-11-15T15:17:14.627Z,100805.28
2023-11-15T15:19:49.981Z,100807.06
2023-11-15T15:22:18.013Z,100812.81
2023-11-15T15:24:46.223Z,100814.16
2023-11-15T15:27:14.276Z,100819.22
2023-11-15T15:29:43.647Z,100832.84
2023-11-15T15:32:13.953Z,100836.50
2023-11-15T15:34:42.758Z,100834.38
2023-11-15T15:37:12.261Z,100838.19
2023-11-15T15:39:40.240Z,100839.75
2023-11-15T15:42:08.520Z,100846.47
2023-11-15T15:44:36.614Z,100851.31
2023-11-15T15:47:05.543Z,100851.78
2023-11-15T15:49:34.050Z,100852.66
2023-11-15T15:52:02.044Z,100870.53
2023-11-15T15:54:31.467Z,100867.75
2023-11-15T15:56:59.495Z,100872.97
2023-11-15T15:59:27.627Z,100873.28
2023-11-15T16:01:57.505Z,100873.94
2023-11-15T16:04:25.668Z,100874.38
2023-11-15T16:06:53.801Z,100874.81
2023-11-15T16:09:23.084Z,100865.03
2023-11-15T16:11:52.619Z,100868.28
2023-11-15T16:14:20.586Z,100872.97
2023-11-15T16:16:49.485Z,100880.09
2023-11-15T16:19:17.679Z,100879.31
2023-11-15T16:21:45.964Z,100877.63
2023-11-15T16:24:14.098Z,100882.16
2023-11-15T16:26:42.636Z,100884.63
2023-11-15T16:29:16.329Z,100888.72
2023-11-15T16:31:44.497Z,100883.69
2023-11-15T16:34:13.518Z,100888.09
2023-11-15T16:36:41.916Z,100893.06
2023-11-15T16:39:12.608Z,100906.47
2023-11-15T16:41:50.374Z,100912.84
2023-11-15T16:44:20.920Z,100913.09
2023-11-15T16:46:49.440Z,100909.56
2023-11-15T16:49:17.611Z,100925.69
2023-11-15T16:51:46.427Z,100916.69
2023-11-15T16:54:16.131Z,100919.25
2023-11-15T16:56:45.294Z,100919.66
2023-11-15T16:59:14.139Z,100921.63
2023-11-15T17:01:43.904Z,100931.38
2023-11-15T17:04:12.486Z,100941.69
2023-11-15T17:06:41.599Z,100941.28
2023-11-15T17:09:10.042Z,100943.69
2023-11-15T17:11:38.001Z,100944.94
2023-11-15T17:14:06.560Z,100947.22
2023-11-15T17:16:35.102Z,100949.22
2023-11-15T17:19:05.013Z,100953.16
2023-11-15T17:21:33.132Z,100952.00
2023-11-15T17:24:02.258Z,100958.50
2023-11-15T17:26:32.164Z,100961.06
2023-11-15T17:29:00.667Z,100960.63
2023-11-15T17:31:31.173Z,100956.38
2023-11-15T17:33:59.293Z,100953.56
2023-11-15T17:36:29.919Z,100955.84
2023-11-15T17:38:59.794Z,100968.22
2023-11-15T17:41:27.591Z,100972.59
2023-11-15T17:43:55.826Z,100972.88
2023-11-15T17:46:25.321Z,100975.56
2023-11-15T17:48:53.279Z,100972.16
2023-11-15T17:51:22.948Z,100974.28
2023-11-15T17:53:54.307Z,100977.81
2023-11-15T17:56:22.354Z,100969.34
2023-11-15T17:58:52.173Z,100964.69
2023-11-15T18:01:21.616Z,100968.81
2023-11-15T18:03:49.776Z,100966.81
2023-11-15T18:06:24.385Z,100970.78
2023-11-15T18:08:53.861Z,100966.53
2023-11-15T18:11:21.905Z,100971.75
2023-11-15T18:13:50.192Z,100982.88
2023-11-15T18:16:18.280Z,100978.53
2023-11-15T18:18:46.270Z,100972.84
2023-11-15T18:21:14.321Z,100971.69
2023-11-15T18:23:42.896Z,100974.13
2023-11-15T18:26:12.234Z,100973.41
2023-11-15T18:28:42.343Z,100980.19
2023-11-15T18:31:11.949Z,100972.41
2023-11-15T18:33:40.324Z,100961.28
2023-11-15T18:36:11.884Z,100966.25
2023-11-15T18:38:40.449Z,100958.59
2023-11-15T18:41:08.558Z,100959.44
2023-11-15T18:43:38.490Z,100963.41
2023-11-15T18:46:07.514Z,100971.69
2023-11-15T18:48:35.598Z,100972.28
2023-11-15T18:51:03.629Z,100974.94
2023-11-15T18:53:31.601Z,100973.69
2023-11-15T18:56:01.192Z,100970.16
2023-11-15T18:58:29.168Z,100971.69
2023-11-15T19:00:59.375Z,100972.84
2023-11-15T19:03:27.913Z,100968.50
2023-11-15T19:05:57.094Z,100969.75
2023-11-15T19:08:25.341Z,100970.59
2023-11-15T19:10:55.606Z,100976.66
2023-11-15T19:13:26.145Z,100974.28
2023-11-15T19:15:54.473Z,100977.81
2023-11-15T19:18:23.974Z,100976.94
2023-11-15T19:20:52.078Z,100971.03
2023-11-15T19:23:21.703Z,100967.09
2023-11-15T19:25:49.498Z,100972.31
2023-11-15T19:28:17.424Z,100982.63
2023-11-15T19:30:46.195Z,100982.06
2023-11-15T19:33:14.319Z,100965.97
2023-11-15T19:35:43.732Z,100976.56
2023-11-15T19:38:13.583Z,100970.75
2023-11-15T19:40:41.593Z,100975.41
2023-11-15T19:43:10.318Z,100975.88
2023-11-15T19:45:39.214Z,100966.97
2023-11-15T19:48:12.412Z,100980.09
2023-11-15T19:50:41.248Z,100975.44
2023-11-15T19:53:12.418Z,100972.75
2023-11-15T19:55:40.535Z,100975.28
2023-11-15T19:58:08.749Z,100982.34
2023-11-15T20:00:37.258Z,100977.28
2023-11-15T20:03:10.889Z,100983.03
2023-11-15T20:05:41.181Z,100985.84
2023-11-15T20:08:10.783Z,100987.69
2023-11-15T20:10:39.119Z,100985.00
2023-11-15T20:13:08.432Z,100987.41
2023-11-15T20:15:38.256Z,100988.94
2023-11-15T20:18:07.077Z,100981.75
2023-11-15T20:20:35.415Z,100994.16
2023-11-15T20:23:03.301Z,100989.94
2023-11-15T20:25:32.597Z,100992.19
2023-11-15T20:28:01.598Z,100999.09
2023-11-15T20:30:32.765Z,100999.09
2023-11-15T20:33:01.250Z,100986.97
2023-11-15T20:35:31.667Z,100975.84
2023-11-15T20:38:00.021Z,100974.44
2023-11-15T20:40:32.336Z,100975.13
2023-11-15T20:43:02.040Z,100980.34
2023-11-15T20:45:30.127Z,100984.69
2023-11-15T20:48:03.316Z,100990.06
2023-11-15T20:50:31.673Z,100985.66
2023-11-15T20:53:01.337Z,100993.72
2023-11-15T20:55:30.612Z,100986.09
2023-11-15T20:58:03.585Z,100986.97
2023-11-15T21:00:35.193Z,100989.25
2023-11-15T21:03:05.883Z,100988.97
2023-11-15T21:05:34.132Z,100981.19
2023-11-15T21:08:02.074Z,100984.84
2023-11-15T21:10:30.113Z,100990.75
2023-11-15T21:12:58.646Z,100985.81
2023-11-15T21:15:27.554Z,100983.41
2023-11-15T21:17:57.337Z,100979.06
2023-11-15T21:20:25.550Z,100974.13
2023-11-15T21:22:53.533Z,100969.88
2023-11-15T21:25:21.616Z,100969.22
2023-11-15T21:27:49.558Z,100969.78
2023-11-15T21:30:19.162Z,100966.13
2023-11-15T21:32:47.348Z,100962.69
2023-11-15T21:35:16.701Z,100966.88
2023-11-15T21:37:46.640Z,100963.38
2023-11-15T21:40:19.081Z,100959.16
2023-11-15T21:42:49.203Z,100971.59
2023-11-15T21:45:20.813Z,100965.13
2023-11-15T21:47:50.135Z,100968.78
2023-11-15T21:50:21.854Z,100966.13
2023-11-15T21:52:51.523Z,100964.16
2023-11-15T21:55:19.532Z,100963.28
2023-11-15T21:57:47.518Z,100970.91
2023-11-15T22:00:17.289Z,100969.22
2023-11-15T22:02:45.715Z,100965.69
2023-11-15T22:05:13.853Z,100963.72
2023-11-15T22:07:43.658Z,100955.41
2023-11-15T22:10:13.801Z,100954.69
2023-11-15T22:12:42.211Z,100956.38
2023-11-15T22:15:11.407Z,100964.00
2023-11-15T22:17:41.314Z,100954.81
2023-11-15T22:20:11.701Z,100955.38
2023-11-15T22:22:40.002Z,100943.41
2023-11-15T22:25:10.980Z,100946.38
2023-11-15T22:27:38.984Z,100943.69
2023-11-15T22:30:08.908Z,100956.09
2023-11-15T22:32:37.013Z,100950.44
2023-11-15T22:35:05.688Z,100947.31
2023-11-15T22:37:34.308Z,100952.44
2023-11-15T22:40:02.276Z,100952.44
2023-11-15T22:42:31.643Z,100940.84
2023-11-15T22:44:59.669Z,100948.06
2023-11-15T22:47:27.734Z,100946.22
2023-11-15T22:49:55.702Z,100941.84
2023-11-15T22:52:23.702Z,100938.88
2023-11-15T22:54:51.835Z,100941.28
2023-11-15T22:57:19.876Z,100933.25
2023-11-15T22:59:52.237Z,100936.75
2023-11-15T23:02:21.102Z,100933.41
2023-11-15T23:04:49.346Z,100933.41
2023-11-15T23:07:21.483Z,100925.91
2023-11-15T23:09:49.843Z,100930.41
2023-11-15T23:12:18.139Z,100920.69
2023-11-15T23:14:46.516Z,100925.34
2023-11-15T23:17:16.697Z,100927.03
2023-11-15T23:19:45.924Z,100920.09
2023-11-15T23:22:13.886Z,100916.88
2023-11-15T23:24:42.434Z,100910.09
2023-11-15T23:27:11.010Z,100920.81
2023-11-15T23:29:39.053Z,100905.59
2023-11-15T23:32:08.444Z,100914.91
2023-11-15T23:34:37.762Z,100919.13
2023-11-15T23:37:06.206Z,100923.50
2023-11-15T23:39:34.509Z,100920.56
2023-11-15T23:42:02.593Z,100916.34
2023-11-15T23:44:31.560Z,100920.13
2023-11-15T23:47:00.149Z,100915.91
2023-11-15T23:49:28.204Z,100917.47
2023-11-15T23:51:57.602Z,100920.44
2023-11-15T23:54:25.522Z,100915.06
2023-11-15T23:56:56.162Z,100911.53
2023-11-15T23:59:24.091Z,100914.22
